Time;durP1;ratioP1;P1;durP2;ratioP2;P2;SDS_P1;SDS_P2;PMS_P1;PMS_P2;Temp;Humidity;BMP_temperature;BMP_pressure;BME280_temperature;BME280_humidity;BME280_pressure;Samples;Min_cycle;Max_cycle;Signal;HPM_P1;HPM_P2
2021/04/29 00:02:21;;;;;;;3.72;1.48;;;8.90;49.10;;;;;;4374334;32;20058;-32
2021/04/29 00:04:47;;;;;;;1.55;1.20;;;8.90;49.20;;;;;;4375782;32;20162;-31
2021/04/29 00:07:13;;;;;;;2.17;1.30;;;8.90;49.20;;;;;;4375319;32;20058;-35
2021/04/29 00:09:40;;;;;;;1.25;0.70;;;8.90;49.30;;;;;;4374017;32;20150;-35
2021/04/29 00:12:07;;;;;;;2.97;0.82;;;8.90;49.20;;;;;;4375559;32;20058;-34
2021/04/29 00:14:34;;;;;;;1.70;1.00;;;8.90;49.10;;;;;;4375315;32;20093;-34
2021/04/29 00:17:00;;;;;;;3.20;0.90;;;8.90;49.10;;;;;;4375544;32;20055;-33
2021/04/29 00:19:30;;;;;;;1.47;0.90;;;8.90;49.20;;;;;;4373798;32;20463;-32
2021/04/29 00:21:57;;;;;;;1.50;1.10;;;8.90;49.20;;;;;;4374152;32;20066;-31
2021/04/29 00:24:23;;;;;;;1.47;1.00;;;8.90;49.20;;;;;;4375225;32;20163;-31
2021/04/29 00:26:50;;;;;;;1.50;1.20;;;8.90;49.30;;;;;;4375599;32;20579;-35
2021/04/29 00:29:16;;;;;;;6.50;2.10;;;8.90;49.40;;;;;;4386135;32;20163;-32
2021/04/29 00:31:42;;;;;;;2.70;1.08;;;8.90;49.40;;;;;;4375010;32;20057;-31
2021/04/29 00:34:09;;;;;;;1.30;1.10;;;8.90;49.50;;;;;;4375673;32;20093;-31
2021/04/29 00:36:35;;;;;;;2.50;1.07;;;8.80;49.50;;;;;;4375391;32;20153;-31
2021/04/29 00:39:03;;;;;;;3.03;1.03;;;8.80;49.50;;;;;;4375388;32;20069;-32
2021/04/29 00:41:29;;;;;;;3.40;1.40;;;8.80;49.50;;;;;;4375278;32;20427;-32
2021/04/29 00:43:56;;;;;;;1.90;1.00;;;8.80;49.50;;;;;;4375029;32;20108;-33
2021/04/29 00:46:22;;;;;;;4.43;1.70;;;8.80;49.50;;;;;;4375365;32;20126;-31
2021/04/29 00:48:49;;;;;;;3.43;1.60;;;8.80;49.70;;;;;;4375421;32;20085;-32
2021/04/29 00:51:17;;;;;;;5.97;1.70;;;8.80;49.70;;;;;;4373213;32;20170;-31
2021/04/29 00:53:44;;;;;;;2.97;1.53;;;8.70;49.80;;;;;;4375079;32;20510;-31
2021/04/29 00:56:11;;;;;;;6.00;2.23;;;8.70;50.00;;;;;;4371949;32;20498;-33
2021/04/29 00:58:38;;;;;;;6.07;2.00;;;8.60;49.90;;;;;;4372450;32;20639;-35
2021/04/29 01:01:05;;;;;;;4.93;1.73;;;8.60;50.00;;;;;;4360460;32;20058;-31
2021/04/29 01:04:03;;;;;;;5.43;1.90;;;8.60;50.10;;;;;;4372050;32;20085;-32
2021/04/29 01:06:42;;;;;;;6.10;2.07;;;8.50;50.30;;;;;;4359738;32;20066;-31
2021/04/29 01:09:18;;;;;;;7.87;1.40;;;8.60;50.50;;;;;;4359723;32;20101;-32
2021/04/29 01:11:48;;;;;;;1.73;1.37;;;8.50;50.40;;;;;;4360873;32;20090;-32
2021/04/29 01:14:14;;;;;;;4.97;1.57;;;8.60;50.50;;;;;;4372070;32;20528;-32
2021/04/29 01:16:41;;;;;;;2.77;1.50;;;8.50;50.50;;;;;;4347494;32;20501;-32
2021/04/29 01:19:10;;;;;;;8.23;2.20;;;8.50;50.40;;;;;;4359868;32;20072;-32
2021/04/29 01:21:37;;;;;;;6.50;2.47;;;8.50;50.50;;;;;;4372397;32;20078;-32
2021/04/29 01:24:21;;;;;;;14.20;1.77;;;8.50;50.50;;;;;;4359770;32;20066;-32
2021/04/29 01:27:01;;;;;;;6.67;1.40;;;8.50;50.60;;;;;;4359788;32;20447;-32
2021/04/29 01:29:30;;;;;;;4.30;1.40;;;8.50;50.50;;;;;;4359917;32;20142;-33
2021/04/29 01:31:57;;;;;;;6.43;1.67;;;8.50;50.60;;;;;;4359767;32;20072;-32
2021/04/29 01:34:26;;;;;;;12.30;2.22;;;8.50;50.70;;;;;;4370071;32;20066;-32
2021/04/29 01:36:53;;;;;;;5.87;1.52;;;8.50;50.70;;;;;;4373026;32;20490;-32
2021/04/29 01:39:20;;;;;;;11.17;1.90;;;8.60;50.70;;;;;;4372890;32;20134;-32
2021/04/29 01:41:51;;;;;;;3.93;1.60;;;8.50;50.60;;;;;;4374607;32;20152;-32
2021/04/29 01:44:20;;;;;;;4.50;1.70;;;8.60;50.80;;;;;;4372866;32;20522;-36
2021/04/29 01:46:47;;;;;;;5.10;2.50;;;8.60;50.70;;;;;;4373971;32;20086;-36
2021/04/29 01:49:13;;;;;;;11.53;2.30;;;8.60;50.80;;;;;;4372773;32;20062;-31
2021/04/29 01:51:40;;;;;;;11.67;1.83;;;8.60;50.90;;;;;;4374464;32;20139;-33
2021/04/29 01:54:10;;;;;;;9.87;1.40;;;8.60;51.00;;;;;;4374373;32;20505;-32
2021/04/29 01:56:37;;;;;;;6.37;1.40;;;8.70;51.40;;;;;;4374264;32;20166;-32
2021/04/29 01:59:09;;;;;;;4.50;1.20;;;8.70;51.50;;;;;;4374441;32;20104;-32
2021/04/29 02:01:40;;;;;;;4.37;1.10;;;8.80;51.60;;;;;;4372490;32;20080;-32
2021/04/29 02:04:10;;;;;;;6.47;1.30;;;8.90;51.60;;;;;;4372802;32;20061;-32
2021/04/29 02:06:40;;;;;;;4.73;1.10;;;9.00;51.50;;;;;;4373622;32;20066;-33
2021/04/29 02:09:08;;;;;;;2.57;1.70;;;9.20;51.40;;;;;;4373381;32;20521;-33
2021/04/29 02:11:53;;;;;;;2.40;0.90;;;9.30;51.20;;;;;;4356025;32;20086;-32
2021/04/29 02:14:29;;;;;;;3.95;0.85;;;9.50;50.80;;;;;;4345190;32;20082;-33
2021/04/29 02:16:57;;;;;;;2.25;0.93;;;9.70;50.20;;;;;;4344474;32;20143;-32
2021/04/29 02:19:24;;;;;;;1.77;0.90;;;9.90;50.00;;;;;;4344079;32;20070;-33
2021/04/29 02:21:51;;;;;;;1.75;0.70;;;10.00;49.70;;;;;;4332304;32;20059;-32
2021/04/29 02:24:17;;;;;;;1.55;1.27;;;10.10;49.60;;;;;;4343697;32;20074;-35
2021/04/29 02:26:44;;;;;;;5.87;0.80;;;10.30;49.50;;;;;;4329039;33;20152;-32
2021/04/29 02:29:10;;;;;;;1.83;0.65;;;10.50;49.30;;;;;;4329401;33;20078;-32
2021/04/29 02:31:37;;;;;;;2.75;0.90;;;10.80;49.00;;;;;;4329256;33;20109;-32
2021/04/29 02:34:04;;;;;;;1.50;0.75;;;11.00;48.50;;;;;;4328950;33;20191;-33
2021/04/29 02:36:32;;;;;;;3.72;0.90;;;11.30;48.10;;;;;;4341295;33;20178;-34
2021/04/29 02:38:58;;;;;;;1.25;0.80;;;11.60;47.50;;;;;;4329184;33;20295;-32
2021/04/29 02:41:25;;;;;;;1.30;0.73;;;12.00;46.60;;;;;;4341282;33;20216;-33
2021/04/29 02:43:52;;;;;;;6.72;0.85;;;12.30;45.60;;;;;;4341491;33;20470;-34
2021/04/29 02:46:19;;;;;;;4.90;0.73;;;12.60;45.00;;;;;;4328653;33;20052;-33
2021/04/29 02:48:45;;;;;;;7.22;1.30;;;12.90;44.40;;;;;;4353653;32;20069;-33
2021/04/29 02:51:12;;;;;;;3.65;1.83;;;13.20;43.90;;;;;;4359922;32;20062;-33
2021/04/29 02:53:41;;;;;;;4.55;1.15;;;13.50;43.30;;;;;;4372817;32;20057;-33
2021/04/29 02:56:07;;;;;;;10.73;1.37;;;13.70;42.80;;;;;;4371725;32;20478;-33
2021/04/29 02:58:54;;;;;;;2.95;1.00;;;14.10;42.30;;;;;;4373228;32;20053;-32
2021/04/29 03:01:20;;;;;;;6.07;1.45;;;14.40;41.20;;;;;;4373320;32;20066;-33
2021/04/29 03:03:47;;;;;;;9.13;3.22;;;14.70;40.80;;;;;;4372768;32;20591;-33
2021/04/29 03:06:13;;;;;;;1.65;0.98;;;15.00;40.30;;;;;;4373655;32;20061;-33
2021/04/29 03:08:40;;;;;;;1.55;0.98;;;15.40;39.70;;;;;;4371546;32;20062;-33
2021/04/29 03:11:06;;;;;;;3.85;1.05;;;15.60;38.60;;;;;;4371973;32;20090;-33
2021/04/29 03:13:33;;;;;;;1.00;0.73;;;15.80;38.20;;;;;;4371285;32;20537;-33
2021/04/29 03:15:59;;;;;;;1.12;0.80;;;16.00;37.80;;;;;;4373005;32;20154;-33
2021/04/29 03:18:26;;;;;;;2.42;1.52;;;16.20;37.40;;;;;;4371229;32;20451;-33
2021/04/29 03:20:52;;;;;;;4.97;1.52;;;16.40;36.60;;;;;;4373079;32;20073;-33
2021/04/29 03:23:19;;;;;;;4.50;1.52;;;16.60;36.80;;;;;;4379433;32;20069;-33
2021/04/29 03:25:46;;;;;;;3.17;0.90;;;16.90;36.40;;;;;;4386885;32;20494;-33
2021/04/29 03:28:12;;;;;;;3.37;1.55;;;17.20;35.60;;;;;;4388610;32;20070;-33
2021/04/29 03:30:39;;;;;;;2.85;1.00;;;17.40;35.20;;;;;;4388127;32;20577;-33
2021/04/29 03:33:06;;;;;;;3.42;1.10;;;17.60;34.90;;;;;;4386469;32;20172;-33
2021/04/29 03:35:33;;;;;;;2.72;1.02;;;17.90;34.90;;;;;;4387616;32;20165;-33
2021/04/29 03:38:00;;;;;;;5.20;0.90;;;18.10;33.80;;;;;;4387752;32;20062;-35
2021/04/29 03:40:26;;;;;;;1.80;0.98;;;18.40;33.20;;;;;;4387908;32;20058;-38
2021/04/29 03:42:54;;;;;;;3.37;1.08;;;18.50;32.80;;;;;;4386219;32;20493;-33
2021/04/29 03:45:22;;;;;;;2.97;1.00;;;18.60;32.10;;;;;;4387793;32;20073;-34
2021/04/29 03:47:48;;;;;;;5.30;1.60;;;18.60;32.00;;;;;;4387776;32;20179;-33
2021/04/29 03:50:15;;;;;;;1.40;1.08;;;18.60;32.20;;;;;;4388091;32;20548;-33
2021/04/29 03:52:42;;;;;;;5.18;1.40;;;18.70;32.00;;;;;;4387523;32;20082;-34
2021/04/29 03:55:09;;;;;;;3.10;1.15;;;18.70;31.80;;;;;;4387938;32;20181;-33
2021/04/29 03:57:35;;;;;;;2.28;0.85;;;18.80;32.00;;;;;;4385889;32;20073;-34
2021/04/29 04:00:05;;;;;;;5.35;1.30;;;18.90;32.00;;;;;;4387840;32;20077;-34
2021/04/29 04:02:32;;;;;;;2.95;0.98;;;19.00;31.70;;;;;;4387791;32;20070;-34
2021/04/29 04:04:58;;;;;;;1.17;1.05;;;19.10;31.60;;;;;;4387172;32;20463;-33
2021/04/29 04:07:25;;;;;;;3.03;1.05;;;19.20;31.30;;;;;;4387538;32;20175;-34
2021/04/29 04:09:51;;;;;;;1.50;1.15;;;19.20;31.00;;;;;;4387575;32;20073;-33
2021/04/29 04:12:18;;;;;;;5.18;0.98;;;19.30;31.10;;;;;;4387920;32;20073;-34
2021/04/29 04:14:44;;;;;;;2.58;1.17;;;19.30;30.90;;;;;;4387834;32;20088;-34
2021/04/29 04:17:11;;;;;;;2.30;1.20;;;19.40;30.80;;;;;;4387593;32;20058;-37
2021/04/29 04:19:37;;;;;;;2.10;1.30;;;19.40;30.70;;;;;;4386082;32;20071;-34
2021/04/29 04:22:04;;;;;;;2.85;1.25;;;19.50;30.70;;;;;;4387765;32;20054;-34
2021/04/29 04:24:30;;;;;;;3.37;1.20;;;19.60;30.60;;;;;;4371790;32;20127;-37
2021/04/29 04:26:57;;;;;;;2.37;1.40;;;19.70;30.50;;;;;;4372430;32;20097;-38
2021/04/29 04:29:23;;;;;;;3.15;1.10;;;19.90;30.30;;;;;;4372635;32;20098;-38
2021/04/29 04:31:49;;;;;;;2.80;1.12;;;19.90;30.30;;;;;;4374167;32;20093;-38
2021/04/29 04:34:16;;;;;;;7.47;1.30;;;20.10;30.10;;;;;;4375467;32;20535;-37
2021/04/29 04:36:42;;;;;;;2.35;1.33;;;20.20;30.00;;;;;;4374974;32;20498;-34
2021/04/29 04:39:09;;;;;;;3.65;1.60;;;20.40;29.90;;;;;;4373856;32;20069;-36
2021/04/29 04:41:35;;;;;;;3.28;1.55;;;20.60;29.80;;;;;;4375354;32;20058;-36
2021/04/29 04:44:02;;;;;;;2.17;1.12;;;20.80;29.60;;;;;;4373396;32;20065;-34
2021/04/29 04:46:29;;;;;;;1.98;1.50;;;21.00;29.50;;;;;;4374566;32;20082;-34
2021/04/29 04:48:55;;;;;;;3.17;2.20;;;21.20;29.10;;;;;;4375194;32;20541;-36
2021/04/29 04:51:22;;;;;;;5.47;1.70;;;21.40;29.00;;;;;;4375075;32;20077;-33
2021/04/29 04:53:49;;;;;;;3.45;1.17;;;21.50;28.90;;;;;;4373674;32;20054;-34
2021/04/29 04:56:15;;;;;;;5.60;2.10;;;21.60;28.60;;;;;;4374986;32;20058;-34
2021/04/29 04:58:42;;;;;;;2.67;1.75;;;21.70;28.60;;;;;;4373370;32;20113;-35
2021/04/29 05:01:08;;;;;;;2.37;1.35;;;21.90;28.50;;;;;;4374894;32;20061;-34
2021/04/29 05:03:35;;;;;;;3.85;1.27;;;22.10;28.40;;;;;;4374810;32;20066;-34
2021/04/29 05:06:01;;;;;;;3.35;1.77;;;22.30;28.10;;;;;;4374668;32;20097;-34
2021/04/29 05:08:28;;;;;;;5.93;2.10;;;22.40;27.90;;;;;;4371472;32;20082;-34
2021/04/29 05:10:54;;;;;;;3.33;1.25;;;22.60;27.90;;;;;;4371749;32;20478;-34
2021/04/29 05:13:22;;;;;;;4.70;1.45;;;22.80;27.60;;;;;;4372440;32;20073;-34
2021/04/29 05:15:49;;;;;;;6.35;1.27;;;22.90;27.50;;;;;;4372114;32;20085;-35
2021/04/29 05:18:16;;;;;;;3.55;1.60;;;23.20;27.40;;;;;;4372144;32;20078;-34
2021/04/29 05:20:43;;;;;;;5.87;1.70;;;23.30;27.20;;;;;;4371591;32;20089;-35
2021/04/29 05:23:09;;;;;;;5.43;1.45;;;23.50;27.10;;;;;;4372106;32;20098;-38
2021/04/29 05:25:36;;;;;;;2.58;1.27;;;23.60;26.90;;;;;;4371591;32;20506;-35
2021/04/29 05:28:03;;;;;;;7.95;3.90;;;23.70;26.70;;;;;;4371815;32;20077;-34
2021/04/29 05:30:30;;;;;;;1.70;1.17;;;23.80;26.80;;;;;;4372201;32;20304;-36
2021/04/29 05:32:56;;;;;;;4.15;1.10;;;23.90;26.60;;;;;;4372073;32;20081;-35
2021/04/29 05:35:23;;;;;;;3.05;1.10;;;24.00;26.30;;;;;;4359750;32;20058;-37
2021/04/29 05:37:49;;;;;;;1.98;0.98;;;24.00;26.40;;;;;;4371997;32;20601;-36
2021/04/29 05:40:16;;;;;;;2.85;1.25;;;24.20;26.20;;;;;;4373478;32;20477;-36
2021/04/29 05:42:43;;;;;;;4.30;1.05;;;24.20;26.20;;;;;;4373995;32;20056;-35
2021/04/29 05:45:11;;;;;;;3.28;1.23;;;24.20;26.20;;;;;;4374484;32;20074;-37
2021/04/29 05:47:38;;;;;;;1.45;1.10;;;24.30;26.10;;;;;;4373948;32;20082;-35
2021/04/29 05:50:05;;;;;;;1.77;0.90;;;24.30;26.00;;;;;;4356035;32;20070;-35
2021/04/29 05:52:32;;;;;;;1.80;1.00;;;24.30;25.90;;;;;;4344387;32;20090;-35
2021/04/29 05:54:58;;;;;;;2.42;1.05;;;24.30;25.80;;;;;;4356705;32;20132;-35
2021/04/29 05:57:25;;;;;;;1.80;1.00;;;24.20;25.80;;;;;;4356703;32;20079;-36
2021/04/29 05:59:52;;;;;;;5.10;1.10;;;24.20;25.80;;;;;;4356959;32;20116;-35
2021/04/29 06:02:18;;;;;;;2.30;0.98;;;24.20;25.80;;;;;;4356814;32;20070;-34
2021/04/29 06:04:44;;;;;;;1.83;0.80;;;24.20;25.60;;;;;;4356225;32;20078;-34
2021/04/29 06:07:13;;;;;;;4.15;1.10;;;24.20;25.60;;;;;;4356498;32;20082;-35
2021/04/29 06:09:40;;;;;;;2.85;0.80;;;24.20;25.60;;;;;;4356635;32;20081;-34
2021/04/29 06:12:08;;;;;;;4.90;0.88;;;24.20;25.70;;;;;;4356439;32;20451;-35
2021/04/29 06:14:34;;;;;;;6.65;0.93;;;24.20;25.60;;;;;;4356145;32;20474;-34
2021/04/29 06:17:02;;;;;;;2.20;0.93;;;24.30;25.70;;;;;;4356018;32;20078;-35
2021/04/29 06:19:28;;;;;;;3.37;0.85;;;24.40;25.60;;;;;;4355939;32;20078;-35
2021/04/29 06:21:55;;;;;;;1.90;0.77;;;24.60;25.50;;;;;;4371221;32;20074;-34
2021/04/29 06:24:21;;;;;;;2.47;0.60;;;24.80;25.20;;;;;;4373957;32;20066;-37
2021/04/29 06:26:47;;;;;;;4.43;0.70;;;25.00;25.00;;;;;;4373409;32;20093;-36
2021/04/29 06:29:14;;;;;;;0.70;0.60;;;25.10;24.60;;;;;;4373759;32;20483;-35
2021/04/29 06:31:41;;;;;;;4.35;0.85;;;25.30;24.50;;;;;;4373232;32;20484;-35
2021/04/29 06:34:08;;;;;;;6.25;0.70;;;25.40;24.30;;;;;;4373475;32;20058;-35
2021/04/29 06:36:34;;;;;;;1.77;0.62;;;25.50;24.20;;;;;;4372232;32;20051;-41
2021/04/29 06:39:01;;;;;;;1.48;0.60;;;25.60;24.00;;;;;;4373325;32;20506;-40
2021/04/29 06:41:28;;;;;;;1.83;0.60;;;25.60;23.70;;;;;;4373407;32;20134;-38
2021/04/29 06:43:54;;;;;;;1.50;0.75;;;25.80;23.80;;;;;;4371767;32;20074;-40
2021/04/29 06:46:21;;;;;;;2.62;0.60;;;25.90;23.70;;;;;;4373223;32;20066;-37
2021/04/29 06:48:47;;;;;;;2.87;0.73;;;26.00;23.40;;;;;;4373528;32;20061;-40
2021/04/29 06:51:14;;;;;;;1.40;0.60;;;26.10;23.20;;;;;;4373453;32;20051;-40
2021/04/29 06:53:40;;;;;;;2.92;0.70;;;26.20;22.80;;;;;;4372370;32;20142;-40
2021/04/29 06:56:07;;;;;;;1.50;0.50;;;26.40;22.90;;;;;;4373090;32;20066;-42
2021/04/29 06:58:34;;;;;;;3.00;0.60;;;26.50;22.30;;;;;;4372991;32;20518;-41
2021/04/29 07:01:01;;;;;;;1.12;0.50;;;26.50;22.20;;;;;;4373155;32;20080;-41
2021/04/29 07:03:27;;;;;;;1.92;0.43;;;26.60;21.60;;;;;;4371811;32;20554;-42
2021/04/29 07:05:54;;;;;;;1.17;0.60;;;26.60;21.20;;;;;;4373754;32;20159;-42
2021/04/29 07:08:21;;;;;;;1.20;0.60;;;26.50;21.50;;;;;;4373052;32;20145;-45
2021/04/29 07:10:48;;;;;;;1.00;0.50;;;26.40;21.10;;;;;;4373044;32;20086;-41
2021/04/29 07:13:16;;;;;;;1.80;0.80;;;26.20;21.20;;;;;;4371671;32;20063;-42
2021/04/29 07:15:42;;;;;;;2.85;0.40;;;25.90;20.80;;;;;;4383725;32;20481;-41
2021/04/29 07:18:10;;;;;;;5.32;0.80;;;25.70;20.90;;;;;;4373109;32;20054;-39
2021/04/29 07:20:37;;;;;;;3.50;0.40;;;25.40;20.80;;;;;;4372892;32;20078;-40
2021/04/29 07:23:05;;;;;;;0.80;0.55;;;25.10;20.50;;;;;;4372803;32;20062;-40
2021/04/29 07:25:31;;;;;;;4.12;0.40;;;24.70;20.70;;;;;;4373152;32;20085;-40
2021/04/29 07:27:58;;;;;;;0.68;0.40;;;24.20;21.00;;;;;;4372962;32;20167;-40
2021/04/29 07:30:25;;;;;;;2.75;0.50;;;24.00;21.40;;;;;;4373338;32;20070;-40
2021/04/29 07:32:52;;;;;;;1.95;0.30;;;23.70;21.20;;;;;;4372507;32;20089;-39
2021/04/29 07:35:20;;;;;;;2.25;0.43;;;23.50;21.40;;;;;;4372607;32;20171;-39
2021/04/29 07:37:47;;;;;;;2.67;0.50;;;23.30;21.60;;;;;;4372404;32;20076;-40
2021/04/29 07:40:13;;;;;;;7.57;0.50;;;23.00;21.40;;;;;;4372533;32;20066;-40
2021/04/29 07:42:40;;;;;;;2.35;0.40;;;22.90;21.70;;;;;;4373010;32;20266;-36
2021/04/29 07:45:08;;;;;;;1.80;0.50;;;22.70;21.90;;;;;;4372756;32;20259;-39
2021/04/29 07:47:34;;;;;;;2.75;0.40;;;22.60;22.00;;;;;;4372407;32;20074;-39
2021/04/29 07:50:01;;;;;;;2.15;0.50;;;22.50;22.00;;;;;;4372816;32;20081;-39
2021/04/29 07:52:27;;;;;;;3.65;1.40;;;22.40;22.10;;;;;;4372531;32;20089;-37
2021/04/29 07:54:54;;;;;;;4.97;0.45;;;22.50;22.40;;;;;;4372578;32;20474;-40
2021/04/29 07:57:20;;;;;;;2.70;0.55;;;22.50;22.30;;;;;;4372834;32;20070;-40
2021/04/29 07:59:47;;;;;;;2.35;0.40;;;22.50;22.10;;;;;;4372989;32;20070;-40
2021/04/29 08:02:13;;;;;;;0.85;0.30;;;22.40;22.00;;;;;;4372723;32;20067;-39
2021/04/29 08:04:40;;;;;;;2.87;0.52;;;22.30;22.10;;;;;;4372437;32;20708;-40
2021/04/29 08:07:06;;;;;;;1.80;0.50;;;22.30;22.60;;;;;;4374185;32;20127;-38
2021/04/29 08:09:33;;;;;;;2.62;0.50;;;22.20;22.60;;;;;;4375838;32;20085;-35
2021/04/29 08:11:59;;;;;;;3.15;0.40;;;22.10;22.60;;;;;;4375924;32;20085;-40
2021/04/29 08:14:26;;;;;;;0.68;0.50;;;22.10;22.50;;;;;;4373526;32;20532;-37
2021/04/29 08:16:52;;;;;;;0.50;0.40;;;22.00;22.40;;;;;;4375086;32;20062;-35
2021/04/29 08:19:19;;;;;;;1.77;0.40;;;22.00;22.40;;;;;;4375347;32;20160;-36
2021/04/29 08:21:47;;;;;;;2.67;0.45;;;21.80;22.60;;;;;;4375635;32;20171;-37
2021/04/29 08:24:13;;;;;;;1.73;1.08;;;21.60;23.00;;;;;;4375223;32;20065;-38
2021/04/29 08:26:40;;;;;;;4.43;0.80;;;21.50;23.50;;;;;;4375179;32;20066;-39
2021/04/29 08:29:07;;;;;;;4.87;0.40;;;21.60;23.60;;;;;;4375246;32;20062;-35
2021/04/29 08:31:33;;;;;;;1.87;0.50;;;21.70;23.20;;;;;;4375201;32;20073;-35
2021/04/29 08:34:00;;;;;;;2.25;0.50;;;21.70;23.00;;;;;;4374004;32;20065;-39
2021/04/29 08:36:29;;;;;;;2.62;0.40;;;21.70;23.00;;;;;;4374796;32;20097;-39
2021/04/29 08:38:57;;;;;;;2.90;0.40;;;21.80;22.90;;;;;;4375103;32;20065;-35
2021/04/29 08:41:24;;;;;;;1.67;0.40;;;21.80;22.90;;;;;;4374649;32;20054;-37
2021/04/29 08:43:50;;;;;;;1.80;0.57;;;21.80;23.20;;;;;;4374986;32;20078;-39
2021/04/29 08:46:17;;;;;;;0.73;0.40;;;21.80;22.90;;;;;;4374620;32;20076;-39
2021/04/29 08:48:43;;;;;;;0.82;0.43;;;21.80;22.60;;;;;;4374564;32;20537;-39
2021/04/29 08:51:09;;;;;;;1.75;0.40;;;21.90;22.60;;;;;;4361527;32;20206;-38
2021/04/29 08:53:37;;;;;;;0.82;0.47;;;22.00;22.40;;;;;;4374875;32;20068;-38
2021/04/29 08:56:04;;;;;;;0.75;0.40;;;22.00;22.20;;;;;;4375129;32;20093;-40
2021/04/29 08:58:30;;;;;;;5.18;0.70;;;22.10;22.20;;;;;;4372992;32;20191;-39
2021/04/29 09:01:02;;;;;;;0.80;0.40;;;22.00;22.50;;;;;;4373447;32;20518;-40
2021/04/29 09:03:34;;;;;;;0.95;0.50;;;22.00;22.40;;;;;;4374893;32;20522;-37
2021/04/29 09:06:04;;;;;;;1.35;0.40;;;22.10;22.70;;;;;;4374904;32;20078;-38
2021/04/29 09:08:36;;;;;;;1.60;0.40;;;22.20;22.50;;;;;;4374634;32;20074;-40
2021/04/29 09:11:16;;;;;;;2.05;0.50;;;22.30;22.50;;;;;;4375174;32;20066;-40
2021/04/29 09:14:00;;;;;;;2.37;0.60;;;22.40;22.40;;;;;;4374679;32;20077;-36
2021/04/29 09:16:43;;;;;;;1.00;0.50;;;22.40;22.60;;;;;;4374214;32;20086;-40
2021/04/29 09:19:32;;;;;;;2.97;0.40;;;22.50;22.30;;;;;;4374039;32;20177;-40
2021/04/29 09:21:59;;;;;;;1.92;0.52;;;22.50;22.30;;;;;;4372981;32;20170;-41
2021/04/29 09:24:39;;;;;;;4.68;0.98;;;22.60;22.30;;;;;;4372484;32;20148;-41
2021/04/29 09:27:17;;;;;;;0.82;0.40;;;22.70;22.20;;;;;;4374936;32;20061;-39
2021/04/29 09:30:00;;;;;;;0.60;0.47;;;22.80;22.30;;;;;;4374229;32;20556;-40
2021/04/29 09:32:34;;;;;;;1.05;0.70;;;22.90;22.00;;;;;;4374492;32;20050;-41
2021/04/29 09:35:03;;;;;;;1.27;0.50;;;23.10;22.30;;;;;;4373947;32;20070;-40
2021/04/29 09:37:32;;;;;;;0.90;0.50;;;23.20;22.20;;;;;;4374491;32;20093;-41
2021/04/29 09:40:00;;;;;;;0.50;0.40;;;23.10;21.90;;;;;;4374313;32;20065;-38
2021/04/29 09:42:35;;;;;;;3.17;0.50;;;23.00;21.70;;;;;;4374074;32;20086;-40
2021/04/29 09:45:03;;;;;;;0.70;0.47;;;23.00;21.90;;;;;;4374305;32;20089;-41
2021/04/29 09:47:31;;;;;;;0.60;0.40;;;23.00;21.60;;;;;;4373678;32;20058;-41
2021/04/29 09:49:58;;;;;;;3.80;0.40;;;23.10;21.60;;;;;;4372709;32;20527;-41
2021/04/29 09:52:25;;;;;;;2.17;0.43;;;23.20;21.40;;;;;;4372839;32;20089;-42
2021/04/29 09:54:53;;;;;;;2.25;0.47;;;23.30;21.40;;;;;;4372446;32;20062;-41
2021/04/29 09:57:25;;;;;;;2.25;0.47;;;23.40;21.90;;;;;;4374233;32;20073;-40
2021/04/29 10:00:00;;;;;;;1.25;0.40;;;23.50;21.40;;;;;;4373898;32;20065;-37
2021/04/29 10:02:30;;;;;;;2.55;0.65;;;23.60;21.20;;;;;;4373966;32;20065;-41
2021/04/29 10:04:57;;;;;;;3.83;0.40;;;23.80;21.60;;;;;;4373678;32;20073;-40
2021/04/29 10:07:23;;;;;;;2.22;0.70;;;24.00;20.70;;;;;;4373753;32;20054;-41
2021/04/29 10:09:50;;;;;;;1.10;0.60;;;24.20;20.60;;;;;;4373804;32;20103;-41
2021/04/29 10:12:21;;;;;;;0.77;0.47;;;24.30;20.50;;;;;;4373580;32;20053;-41
2021/04/29 10:14:51;;;;;;;2.40;0.32;;;24.50;20.10;;;;;;4373400;32;20058;-40
2021/04/29 10:17:20;;;;;;;2.25;0.70;;;24.70;20.00;;;;;;4372340;32;20054;-41
2021/04/29 10:19:57;;;;;;;2.30;0.85;;;24.80;19.90;;;;;;4371942;32;20458;-41
2021/04/29 10:22:24;;;;;;;1.83;0.50;;;24.90;19.80;;;;;;4373006;32;20488;-40
2021/04/29 10:24:50;;;;;;;1.65;0.40;;;24.80;19.90;;;;;;4388276;32;20096;-40
2021/04/29 10:27:26;;;;;;;2.40;0.40;;;24.80;20.20;;;;;;4388438;32;20097;-40
2021/04/29 10:30:33;;;;;;;0.62;0.40;;;24.90;20.00;;;;;;4386644;32;20600;-40
2021/04/29 10:33:10;;;;;;;0.60;0.30;;;24.80;20.20;;;;;;4325920;33;20580;-42
2021/04/29 10:35:56;;;;;;;1.40;0.65;;;24.70;20.20;;;;;;4315842;33;20144;-39
2021/04/29 10:38:29;;;;;;;1.40;0.40;;;24.80;20.20;;;;;;4304734;33;20526;-42
2021/04/29 10:40:57;;;;;;;1.10;0.60;;;24.90;20.10;;;;;;4314795;33;20135;-38
2021/04/29 10:43:32;;;;;;;0.50;0.30;;;25.00;20.30;;;;;;4326037;33;20067;-42
2021/04/29 10:46:03;;;;;;;0.82;0.32;;;25.20;20.40;;;;;;4325882;33;20465;-40
2021/04/29 10:48:30;;;;;;;2.05;0.45;;;25.30;19.90;;;;;;4325927;33;20103;-42
2021/04/29 10:51:12;;;;;;;0.93;0.40;;;25.40;19.90;;;;;;4314402;33;20063;-42
2021/04/29 10:53:40;;;;;;;0.47;0.40;;;25.40;19.70;;;;;;4313884;33;20090;-41
2021/04/29 10:56:19;;;;;;;2.22;0.50;;;25.50;19.60;;;;;;4326560;33;20149;-42
2021/04/29 10:58:46;;;;;;;0.90;0.43;;;25.40;19.70;;;;;;4326071;33;20065;-42
2021/04/29 11:01:20;;;;;;;1.30;0.50;;;25.30;19.70;;;;;;4326187;33;20281;-41
2021/04/29 11:03:51;;;;;;;3.25;0.40;;;25.30;19.70;;;;;;4325700;33;20094;-40
2021/04/29 11:06:22;;;;;;;0.82;0.60;;;25.40;19.80;;;;;;4325937;33;20067;-42
2021/04/29 11:08:50;;;;;;;0.70;0.40;;;25.40;19.90;;;;;;4346618;32;20157;-43
2021/04/29 11:11:27;;;;;;;1.50;0.40;;;25.60;19.80;;;;;;4387837;32;20062;-42
2021/04/29 11:14:02;;;;;;;2.22;0.40;;;25.80;19.60;;;;;;4387818;32;20093;-44
2021/04/29 11:16:41;;;;;;;1.67;0.60;;;26.00;19.60;;;;;;4386761;32;20550;-43
2021/04/29 11:19:08;;;;;;;0.30;0.30;;;26.30;19.50;;;;;;4387787;32;20502;-41
2021/04/29 11:21:34;;;;;;;1.08;0.40;;;26.60;19.40;;;;;;4388007;32;20166;-41
2021/04/29 11:24:01;;;;;;;7.87;0.80;;;26.80;19.10;;;;;;4375378;32;20068;-41
2021/04/29 11:26:33;;;;;;;2.60;0.40;;;27.10;19.20;;;;;;4372042;32;20071;-45
2021/04/29 11:29:00;;;;;;;3.33;0.50;;;27.30;19.00;;;;;;4373004;32;20600;-42
2021/04/29 11:31:37;;;;;;;2.47;0.50;;;27.50;19.00;;;;;;4372478;32;20092;-43
2021/04/29 11:34:04;;;;;;;2.25;0.50;;;27.60;18.90;;;;;;4360291;32;20112;-43
2021/04/29 11:36:31;;;;;;;4.90;0.60;;;27.70;19.00;;;;;;4372376;32;20534;-42
2021/04/29 11:39:06;;;;;;;0.88;0.32;;;27.80;18.90;;;;;;4372644;32;20154;-42
2021/04/29 11:41:32;;;;;;;2.78;0.43;;;28.00;18.60;;;;;;4375344;32;20524;-42
2021/04/29 11:44:02;;;;;;;0.57;0.30;;;28.00;18.70;;;;;;4375658;32;20074;-42
2021/04/29 11:46:30;;;;;;;0.80;0.40;;;27.90;18.60;;;;;;4375395;32;20058;-42
2021/04/29 11:49:04;;;;;;;1.58;0.60;;;27.80;18.60;;;;;;4375703;32;20058;-43
2021/04/29 11:51:33;;;;;;;2.78;0.50;;;27.60;18.70;;;;;;4375770;32;20069;-42
2021/04/29 11:54:05;;;;;;;6.07;0.80;;;27.60;18.80;;;;;;4375343;32;20046;-43
2021/04/29 11:56:49;;;;;;;3.75;0.40;;;27.50;18.90;;;;;;4375601;32;20074;-43
2021/04/29 11:59:17;;;;;;;12.73;9.73;;;27.50;19.00;;;;;;4375787;32;20452;-38
2021/04/29 12:01:53;;;;;;;1.80;0.50;;;27.50;19.00;;;;;;4374342;32;20092;-43
2021/04/29 12:04:24;;;;;;;1.62;0.40;;;27.60;18.90;;;;;;4375844;32;20081;-42
2021/04/29 12:06:59;;;;;;;2.60;0.85;;;27.70;18.80;;;;;;4376026;32;20058;-43
2021/04/29 12:09:26;;;;;;;9.82;0.60;;;27.90;18.80;;;;;;4375424;32;20055;-42
2021/04/29 12:11:54;;;;;;;0.82;0.37;;;27.90;18.70;;;;;;4375328;32;20483;-42
2021/04/29 12:14:25;;;;;;;0.60;0.40;;;27.90;18.60;;;;;;4375416;32;20077;-43
2021/04/29 12:16:59;;;;;;;2.33;0.40;;;28.00;18.70;;;;;;4375222;32;20163;-42
2021/04/29 12:19:26;;;;;;;4.87;0.70;;;28.00;18.50;;;;;;4362156;32;20232;-43
2021/04/29 12:21:53;;;;;;;3.20;0.80;;;28.10;18.60;;;;;;4361475;32;20605;-42
2021/04/29 12:24:19;;;;;;;2.30;0.40;;;28.20;18.60;;;;;;4374894;32;20070;-43
2021/04/29 12:26:46;;;;;;;31.83;1.77;;;28.20;18.60;;;;;;4375244;32;20065;-44
2021/04/29 12:29:17;;;;;;;3.62;0.50;;;28.10;18.60;;;;;;4373725;32;20062;-43
2021/04/29 12:31:55;;;;;;;2.03;0.40;;;28.00;18.50;;;;;;4375642;32;20077;-44
2021/04/29 12:34:22;;;;;;;30.88;1.58;;;27.90;18.70;;;;;;4375601;32;20072;-42
2021/04/29 12:36:56;;;;;;;1.45;0.40;;;27.80;18.70;;;;;;4373806;32;20137;-42
2021/04/29 12:39:25;;;;;;;0.73;0.47;;;27.60;18.80;;;;;;4375205;32;20093;-43
2021/04/29 12:42:00;;;;;;;0.93;0.40;;;27.50;18.60;;;;;;4374990;32;20146;-42
2021/04/29 12:44:42;;;;;;;3.55;0.70;;;27.40;18.70;;;;;;4373230;32;20149;-42
2021/04/29 12:47:10;;;;;;;4.75;0.50;;;27.20;18.70;;;;;;4374906;32;20177;-41
2021/04/29 12:49:37;;;;;;;2.12;0.70;;;27.00;18.70;;;;;;4375107;32;20511;-41
2021/04/29 12:52:13;;;;;;;5.78;0.75;;;26.70;18.90;;;;;;4372307;32;20128;-42
2021/04/29 12:54:40;;;;;;;3.30;0.40;;;26.60;19.20;;;;;;4373436;32;20066;-43
2021/04/29 12:57:07;;;;;;;14.65;2.70;;;26.50;19.10;;;;;;4373430;32;20105;-43